sensor_id;sensor_type;location;lat;lon;timestamp;P1;durP1;ratioP1;P2;durP2;ratioP2
9906;SDS011;4992;51.628;6.664;2023-03-23T00:02:24;3.80;;;2.17;;
9906;SDS011;4992;51.628;6.664;2023-03-23T00:04:54;2.20;;;2.00;;
9906;SDS011;4992;51.628;6.664;2023-03-23T00:07:20;3.80;;;2.17;;
9906;SDS011;4992;51.628;6.664;2023-03-23T00:09:52;3.50;;;1.80;;
9906;SDS011;4992;51.628;6.664;2023-03-23T00:12:22;4.22;;;2.40;;
9906;SDS011;4992;51.628;6.664;2023-03-23T00:15:04;3.10;;;1.60;;
9906;SDS011;4992;51.628;6.664;2023-03-23T00:17:32;2.45;;;1.85;;
9906;SDS011;4992;51.628;6.664;2023-03-23T00:19:58;3.47;;;1.92;;
9906;SDS011;4992;51.628;6.664;2023-03-23T00:22:26;4.10;;;1.88;;
9906;SDS011;4992;51.628;6.664;2023-03-23T00:24:54;2.95;;;1.98;;
9906;SDS011;4992;51.628;6.664;2023-03-23T00:27:21;2.03;;;1.83;;
9906;SDS011;4992;51.628;6.664;2023-03-23T00:29:50;3.67;;;2.00;;
9906;SDS011;4992;51.628;6.664;2023-03-23T00:32:20;3.28;;;2.38;;
9906;SDS011;4992;51.628;6.664;2023-03-23T00:34:52;2.60;;;2.03;;
9906;SDS011;4992;51.628;6.664;2023-03-23T00:37:18;3.75;;;1.90;;
9906;SDS011;4992;51.628;6.664;2023-03-23T00:39:44;2.50;;;1.92;;
9906;SDS011;4992;51.628;6.664;2023-03-23T00:42:12;4.05;;;1.88;;
9906;SDS011;4992;51.628;6.664;2023-03-23T00:44:38;3.70;;;2.03;;
9906;SDS011;4992;51.628;6.664;2023-03-23T00:47:04;2.95;;;1.98;;
9906;SDS011;4992;51.628;6.664;2023-03-23T00:49:32;2.53;;;1.73;;
9906;SDS011;4992;51.628;6.664;2023-03-23T00:51:59;4.55;;;2.00;;
9906;SDS011;4992;51.628;6.664;2023-03-23T00:54:26;5.07;;;2.33;;
9906;SDS011;4992;51.628;6.664;2023-03-23T00:56:52;4.43;;;2.10;;
9906;SDS011;4992;51.628;6.664;2023-03-23T00:59:18;2.92;;;1.83;;
9906;SDS011;4992;51.628;6.664;2023-03-23T01:01:44;3.65;;;2.20;;
9906;SDS011;4992;51.628;6.664;2023-03-23T01:04:10;4.18;;;1.90;;
9906;SDS011;4992;51.628;6.664;2023-03-23T01:06:37;2.17;;;1.95;;
9906;SDS011;4992;51.628;6.664;2023-03-23T01:09:05;3.47;;;2.60;;
9906;SDS011;4992;51.628;6.664;2023-03-23T01:11:31;5.25;;;2.28;;
9906;SDS011;4992;51.628;6.664;2023-03-23T01:13:58;2.72;;;2.10;;
9906;SDS011;4992;51.628;6.664;2023-03-23T01:16:24;2.33;;;1.90;;
9906;SDS011;4992;51.628;6.664;2023-03-23T01:18:50;3.85;;;2.03;;
9906;SDS011;4992;51.628;6.664;2023-03-23T01:21:16;3.08;;;2.35;;
9906;SDS011;4992;51.628;6.664;2023-03-23T01:23:43;2.97;;;2.20;;
9906;SDS011;4992;51.628;6.664;2023-03-23T01:26:10;2.30;;;2.10;;
9906;SDS011;4992;51.628;6.664;2023-03-23T01:28:38;2.08;;;1.83;;
9906;SDS011;4992;51.628;6.664;2023-03-23T01:31:05;3.78;;;2.53;;
9906;SDS011;4992;51.628;6.664;2023-03-23T01:33:33;2.42;;;1.75;;
9906;SDS011;4992;51.628;6.664;2023-03-23T01:36:02;2.05;;;1.90;;
9906;SDS011;4992;51.628;6.664;2023-03-23T01:38:29;3.85;;;2.00;;
9906;SDS011;4992;51.628;6.664;2023-03-23T01:40:55;2.85;;;2.13;;
9906;SDS011;4992;51.628;6.664;2023-03-23T01:43:21;5.85;;;2.10;;
9906;SDS011;4992;51.628;6.664;2023-03-23T01:45:47;2.95;;;2.30;;
9906;SDS011;4992;51.628;6.664;2023-03-23T01:48:14;4.25;;;2.15;;
9906;SDS011;4992;51.628;6.664;2023-03-23T01:50:48;2.53;;;2.15;;
9906;SDS011;4992;51.628;6.664;2023-03-23T01:53:54;2.40;;;2.10;;
9906;SDS011;4992;51.628;6.664;2023-03-23T01:56:24;5.40;;;2.10;;
9906;SDS011;4992;51.628;6.664;2023-03-23T01:58:54;2.38;;;2.10;;
9906;SDS011;4992;51.628;6.664;2023-03-23T02:01:21;2.78;;;1.80;;
9906;SDS011;4992;51.628;6.664;2023-03-23T02:03:49;2.65;;;2.20;;
9906;SDS011;4992;51.628;6.664;2023-03-23T02:06:16;2.45;;;2.10;;
9906;SDS011;4992;51.628;6.664;2023-03-23T02:08:42;2.22;;;2.03;;
9906;SDS011;4992;51.628;6.664;2023-03-23T02:11:19;2.55;;;2.17;;
9906;SDS011;4992;51.628;6.664;2023-03-23T02:13:46;2.50;;;2.15;;
9906;SDS011;4992;51.628;6.664;2023-03-23T02:16:25;2.42;;;2.22;;
9906;SDS011;4992;51.628;6.664;2023-03-23T02:19:06;2.58;;;2.30;;
9906;SDS011;4992;51.628;6.664;2023-03-23T02:21:59;3.53;;;2.30;;
9906;SDS011;4992;51.628;6.664;2023-03-23T02:30:58;3.17;;;2.15;;
9906;SDS011;4992;51.628;6.664;2023-03-23T02:33:55;3.72;;;2.30;;
9906;SDS011;4992;51.628;6.664;2023-03-23T02:36:43;3.63;;;2.20;;
9906;SDS011;4992;51.628;6.664;2023-03-23T02:39:14;2.47;;;2.28;;
9906;SDS011;4992;51.628;6.664;2023-03-23T02:41:48;2.75;;;2.28;;
9906;SDS011;4992;51.628;6.664;2023-03-23T02:44:22;2.88;;;2.25;;
9906;SDS011;4992;51.628;6.664;2023-03-23T02:46:52;2.83;;;1.95;;
9906;SDS011;4992;51.628;6.664;2023-03-23T02:49:19;2.30;;;2.10;;
9906;SDS011;4992;51.628;6.664;2023-03-23T02:51:46;2.80;;;2.08;;
9906;SDS011;4992;51.628;6.664;2023-03-23T02:54:12;3.88;;;2.28;;
9906;SDS011;4992;51.628;6.664;2023-03-23T02:56:41;2.95;;;2.20;;
9906;SDS011;4992;51.628;6.664;2023-03-23T02:59:07;3.70;;;2.60;;
9906;SDS011;4992;51.628;6.664;2023-03-23T03:03:58;1.98;;;1.88;;
9906;SDS011;4992;51.628;6.664;2023-03-23T03:09:26;2.03;;;1.83;;
9906;SDS011;4992;51.628;6.664;2023-03-23T03:12:22;2.67;;;2.22;;
9906;SDS011;4992;51.628;6.664;2023-03-23T03:14:58;2.30;;;2.10;;
9906;SDS011;4992;51.628;6.664;2023-03-23T03:20:45;2.50;;;2.03;;
9906;SDS011;4992;51.628;6.664;2023-03-23T03:23:14;3.45;;;2.10;;
9906;SDS011;4992;51.628;6.664;2023-03-23T03:25:42;3.78;;;2.38;;
9906;SDS011;4992;51.628;6.664;2023-03-23T03:28:12;3.28;;;2.13;;
9906;SDS011;4992;51.628;6.664;2023-03-23T03:30:41;2.10;;;1.90;;
9906;SDS011;4992;51.628;6.664;2023-03-23T03:33:08;1.90;;;1.80;;
9906;SDS011;4992;51.628;6.664;2023-03-23T03:35:35;2.53;;;2.10;;
9906;SDS011;4992;51.628;6.664;2023-03-23T03:38:07;3.97;;;2.20;;
9906;SDS011;4992;51.628;6.664;2023-03-23T03:40:34;2.90;;;2.10;;
9906;SDS011;4992;51.628;6.664;2023-03-23T03:42:59;2.85;;;1.98;;
9906;SDS011;4992;51.628;6.664;2023-03-23T03:45:25;4.38;;;2.75;;
9906;SDS011;4992;51.628;6.664;2023-03-23T03:47:51;3.05;;;2.20;;
9906;SDS011;4992;51.628;6.664;2023-03-23T03:50:16;4.80;;;2.50;;
9906;SDS011;4992;51.628;6.664;2023-03-23T03:52:42;2.95;;;1.63;;
9906;SDS011;4992;51.628;6.664;2023-03-23T03:55:08;1.75;;;1.65;;
9906;SDS011;4992;51.628;6.664;2023-03-23T03:57:35;2.92;;;1.92;;
9906;SDS011;4992;51.628;6.664;2023-03-23T04:00:01;2.10;;;1.90;;
9906;SDS011;4992;51.628;6.664;2023-03-23T04:02:37;3.70;;;1.83;;
9906;SDS011;4992;51.628;6.664;2023-03-23T04:05:03;2.65;;;2.42;;
9906;SDS011;4992;51.628;6.664;2023-03-23T04:07:29;2.55;;;1.98;;
9906;SDS011;4992;51.628;6.664;2023-03-23T04:09:54;3.38;;;2.10;;
9906;SDS011;4992;51.628;6.664;2023-03-23T04:12:20;2.30;;;2.10;;
9906;SDS011;4992;51.628;6.664;2023-03-23T04:14:45;2.42;;;2.10;;
9906;SDS011;4992;51.628;6.664;2023-03-23T04:17:11;2.08;;;1.50;;
9906;SDS011;4992;51.628;6.664;2023-03-23T04:19:37;2.28;;;2.00;;
9906;SDS011;4992;51.628;6.664;2023-03-23T04:22:04;2.17;;;1.98;;
9906;SDS011;4992;51.628;6.664;2023-03-23T04:24:30;5.68;;;2.03;;
9906;SDS011;4992;51.628;6.664;2023-03-23T04:26:58;3.33;;;1.92;;
9906;SDS011;4992;51.628;6.664;2023-03-23T04:29:24;2.17;;;1.80;;
9906;SDS011;4992;51.628;6.664;2023-03-23T04:31:50;1.75;;;1.58;;
9906;SDS011;4992;51.628;6.664;2023-03-23T04:34:17;1.60;;;1.50;;
9906;SDS011;4992;51.628;6.664;2023-03-23T04:36:43;2.03;;;1.80;;
9906;SDS011;4992;51.628;6.664;2023-03-23T04:39:09;1.73;;;1.58;;
9906;SDS011;4992;51.628;6.664;2023-03-23T04:41:36;1.60;;;1.50;;
9906;SDS011;4992;51.628;6.664;2023-03-23T04:44:01;2.67;;;1.77;;
9906;SDS011;4992;51.628;6.664;2023-03-23T04:46:28;1.80;;;1.30;;
9906;SDS011;4992;51.628;6.664;2023-03-23T04:48:57;2.53;;;1.88;;
9906;SDS011;4992;51.628;6.664;2023-03-23T04:51:27;2.38;;;1.50;;
9906;SDS011;4992;51.628;6.664;2023-03-23T04:53:54;4.75;;;1.95;;
9906;SDS011;4992;51.628;6.664;2023-03-23T04:56:19;2.72;;;1.80;;
9906;SDS011;4992;51.628;6.664;2023-03-23T04:58:45;1.60;;;1.50;;
9906;SDS011;4992;51.628;6.664;2023-03-23T05:01:11;1.98;;;1.52;;
9906;SDS011;4992;51.628;6.664;2023-03-23T05:03:39;2.30;;;1.65;;
9906;SDS011;4992;51.628;6.664;2023-03-23T05:06:05;1.75;;;1.48;;
9906;SDS011;4992;51.628;6.664;2023-03-23T05:08:31;2.25;;;1.58;;
9906;SDS011;4992;51.628;6.664;2023-03-23T05:10:57;4.32;;;1.50;;
9906;SDS011;4992;51.628;6.664;2023-03-23T05:13:26;5.50;;;1.60;;
9906;SDS011;4992;51.628;6.664;2023-03-23T05:15:53;3.13;;;1.92;;
9906;SDS011;4992;51.628;6.664;2023-03-23T05:18:18;1.90;;;1.40;;
9906;SDS011;4992;51.628;6.664;2023-03-23T05:20:45;2.30;;;1.50;;
9906;SDS011;4992;51.628;6.664;2023-03-23T05:23:12;3.50;;;1.70;;
9906;SDS011;4992;51.628;6.664;2023-03-23T05:25:38;1.80;;;1.70;;
9906;SDS011;4992;51.628;6.664;2023-03-23T05:28:07;1.45;;;1.35;;
9906;SDS011;4992;51.628;6.664;2023-03-23T05:30:35;1.83;;;1.55;;
9906;SDS011;4992;51.628;6.664;2023-03-23T05:33:03;3.60;;;2.03;;
9906;SDS011;4992;51.628;6.664;2023-03-23T05:35:29;2.70;;;1.90;;
9906;SDS011;4992;51.628;6.664;2023-03-23T05:37:55;3.38;;;2.05;;
9906;SDS011;4992;51.628;6.664;2023-03-23T05:40:21;1.95;;;1.80;;
9906;SDS011;4992;51.628;6.664;2023-03-23T05:42:48;2.97;;;1.85;;
9906;SDS011;4992;51.628;6.664;2023-03-23T05:45:13;2.30;;;1.70;;
9906;SDS011;4992;51.628;6.664;2023-03-23T05:47:39;3.10;;;1.95;;
9906;SDS011;4992;51.628;6.664;2023-03-23T05:50:06;1.80;;;1.60;;
9906;SDS011;4992;51.628;6.664;2023-03-23T05:52:34;1.63;;;1.40;;
9906;SDS011;4992;51.628;6.664;2023-03-23T05:55:03;3.17;;;1.88;;
9906;SDS011;4992;51.628;6.664;2023-03-23T05:57:30;4.13;;;1.75;;
9906;SDS011;4992;51.628;6.664;2023-03-23T05:59:55;1.67;;;1.58;;
9906;SDS011;4992;51.628;6.664;2023-03-23T06:02:22;1.50;;;1.30;;
9906;SDS011;4992;51.628;6.664;2023-03-23T06:04:49;4.72;;;2.10;;
9906;SDS011;4992;51.628;6.664;2023-03-23T06:07:15;2.97;;;1.70;;
9906;SDS011;4992;51.628;6.664;2023-03-23T06:09:41;3.42;;;1.80;;
9906;SDS011;4992;51.628;6.664;2023-03-23T06:12:07;3.33;;;1.70;;
9906;SDS011;4992;51.628;6.664;2023-03-23T06:14:34;2.42;;;1.60;;
9906;SDS011;4992;51.628;6.664;2023-03-23T06:17:01;2.67;;;1.55;;
9906;SDS011;4992;51.628;6.664;2023-03-23T06:19:27;2.10;;;1.95;;
9906;SDS011;4992;51.628;6.664;2023-03-23T06:21:55;3.90;;;1.80;;
9906;SDS011;4992;51.628;6.664;2023-03-23T06:24:21;1.75;;;1.65;;
9906;SDS011;4992;51.628;6.664;2023-03-23T06:26:47;3.22;;;2.13;;
9906;SDS011;4992;51.628;6.664;2023-03-23T06:29:14;2.60;;;1.55;;
9906;SDS011;4992;51.628;6.664;2023-03-23T06:31:40;4.40;;;2.00;;
9906;SDS011;4992;51.628;6.664;2023-03-23T06:34:09;2.88;;;1.50;;
9906;SDS011;4992;51.628;6.664;2023-03-23T06:36:36;2.83;;;1.40;;
9906;SDS011;4992;51.628;6.664;2023-03-23T06:39:03;3.15;;;1.70;;
9906;SDS011;4992;51.628;6.664;2023-03-23T06:41:30;3.63;;;1.65;;
9906;SDS011;4992;51.628;6.664;2023-03-23T06:43:56;3.03;;;1.15;;
9906;SDS011;4992;51.628;6.664;2023-03-23T06:46:22;3.33;;;1.67;;
9906;SDS011;4992;51.628;6.664;2023-03-23T06:48:47;9.77;;;1.73;;
9906;SDS011;4992;51.628;6.664;2023-03-23T06:51:14;5.90;;;1.88;;
9906;SDS011;4992;51.628;6.664;2023-03-23T06:53:41;3.83;;;1.48;;
9906;SDS011;4992;51.628;6.664;2023-03-23T06:56:06;3.03;;;1.42;;
9906;SDS011;4992;51.628;6.664;2023-03-23T06:58:32;3.50;;;1.40;;
9906;SDS011;4992;51.628;6.664;2023-03-23T07:00:58;4.75;;;2.08;;
9906;SDS011;4992;51.628;6.664;2023-03-23T07:03:24;4.57;;;1.60;;
9906;SDS011;4992;51.628;6.664;2023-03-23T07:05:51;3.75;;;1.48;;
9906;SDS011;4992;51.628;6.664;2023-03-23T07:08:17;1.70;;;1.27;;
9906;SDS011;4992;51.628;6.664;2023-03-23T07:10:42;4.55;;;1.25;;
9906;SDS011;4992;51.628;6.664;2023-03-23T07:13:08;3.05;;;1.30;;
9906;SDS011;4992;51.628;6.664;2023-03-23T07:15:34;3.08;;;1.45;;
9906;SDS011;4992;51.628;6.664;2023-03-23T07:17:59;4.15;;;1.52;;
9906;SDS011;4992;51.628;6.664;2023-03-23T07:20:25;4.55;;;1.50;;
9906;SDS011;4992;51.628;6.664;2023-03-23T07:22:53;2.88;;;1.30;;
9906;SDS011;4992;51.628;6.664;2023-03-23T07:25:19;5.50;;;1.30;;
9906;SDS011;4992;51.628;6.664;2023-03-23T07:27:45;2.78;;;1.10;;
9906;SDS011;4992;51.628;6.664;2023-03-23T07:30:11;3.85;;;1.35;;
9906;SDS011;4992;51.628;6.664;2023-03-23T07:32:38;4.50;;;1.00;;
9906;SDS011;4992;51.628;6.664;2023-03-23T07:35:04;3.13;;;1.52;;
9906;SDS011;4992;51.628;6.664;2023-03-23T07:37:29;2.85;;;1.10;;
9906;SDS011;4992;51.628;6.664;2023-03-23T07:39:57;5.85;;;1.33;;
9906;SDS011;4992;51.628;6.664;2023-03-23T07:42:22;1.98;;;1.30;;
9906;SDS011;4992;51.628;6.664;2023-03-23T07:44:48;4.55;;;1.20;;
9906;SDS011;4992;51.628;6.664;2023-03-23T07:47:14;5.65;;;1.25;;
9906;SDS011;4992;51.628;6.664;2023-03-23T07:49:40;4.35;;;1.13;;
9906;SDS011;4992;51.628;6.664;2023-03-23T07:52:06;3.08;;;1.90;;
9906;SDS011;4992;51.628;6.664;2023-03-23T07:54:31;4.72;;;1.83;;
9906;SDS011;4992;51.628;6.664;2023-03-23T07:56:57;4.43;;;1.45;;
9906;SDS011;4992;51.628;6.664;2023-03-23T07:59:22;5.93;;;1.38;;
9906;SDS011;4992;51.628;6.664;2023-03-23T08:01:48;4.88;;;1.20;;
9906;SDS011;4992;51.628;6.664;2023-03-23T08:04:13;4.38;;;1.20;;
9906;SDS011;4992;51.628;6.664;2023-03-23T08:06:40;3.53;;;1.35;;
9906;SDS011;4992;51.628;6.664;2023-03-23T08:09:06;2.03;;;1.05;;
9906;SDS011;4992;51.628;6.664;2023-03-23T08:11:36;2.95;;;1.10;;
9906;SDS011;4992;51.628;6.664;2023-03-23T08:14:03;5.50;;;1.20;;
9906;SDS011;4992;51.628;6.664;2023-03-23T08:16:30;3.55;;;1.27;;
9906;SDS011;4992;51.628;6.664;2023-03-23T08:18:56;3.25;;;1.45;;
9906;SDS011;4992;51.628;6.664;2023-03-23T08:21:22;3.13;;;1.17;;
9906;SDS011;4992;51.628;6.664;2023-03-23T08:23:48;3.75;;;1.73;;
9906;SDS011;4992;51.628;6.664;2023-03-23T08:26:14;6.25;;;1.48;;
9906;SDS011;4992;51.628;6.664;2023-03-23T08:28:42;3.47;;;1.70;;
9906;SDS011;4992;51.628;6.664;2023-03-23T08:31:09;5.90;;;1.40;;
9906;SDS011;4992;51.628;6.664;2023-03-23T08:33:36;5.25;;;1.70;;
9906;SDS011;4992;51.628;6.664;2023-03-23T08:36:02;6.47;;;1.75;;
9906;SDS011;4992;51.628;6.664;2023-03-23T08:38:29;4.03;;;1.70;;
9906;SDS011;4992;51.628;6.664;2023-03-23T08:41:02;2.80;;;1.48;;
9906;SDS011;4992;51.628;6.664;2023-03-23T08:43:30;2.10;;;1.20;;
9906;SDS011;4992;51.628;6.664;2023-03-23T08:45:57;4.35;;;1.95;;
9906;SDS011;4992;51.628;6.664;2023-03-23T08:48:22;6.30;;;2.33;;
9906;SDS011;4992;51.628;6.664;2023-03-23T08:50:48;3.25;;;1.40;;
9906;SDS011;4992;51.628;6.664;2023-03-23T08:53:15;5.43;;;1.92;;
9906;SDS011;4992;51.628;6.664;2023-03-23T08:55:40;6.63;;;1.95;;
9906;SDS011;4992;51.628;6.664;2023-03-23T08:58:07;4.88;;;1.50;;
9906;SDS011;4992;51.628;6.664;2023-03-23T09:00:33;4.40;;;2.08;;
9906;SDS011;4992;51.628;6.664;2023-03-23T09:02:59;7.00;;;2.10;;
9906;SDS011;4992;51.628;6.664;2023-03-23T09:05:25;3.40;;;0.73;;
9906;SDS011;4992;51.628;6.664;2023-03-23T09:07:54;3.55;;;1.02;;
9906;SDS011;4992;51.628;6.664;2023-03-23T09:10:23;1.88;;;0.85;;
9906;SDS011;4992;51.628;6.664;2023-03-23T09:12:51;1.73;;;0.52;;
9906;SDS011;4992;51.628;6.664;2023-03-23T09:15:17;2.50;;;0.50;;
9906;SDS011;4992;51.628;6.664;2023-03-23T09:17:47;1.10;;;0.60;;
9906;SDS011;4992;51.628;6.664;2023-03-23T09:20:14;2.35;;;0.68;;
9906;SDS011;4992;51.628;6.664;2023-03-23T09:22:45;3.92;;;0.60;;
9906;SDS011;4992;51.628;6.664;2023-03-23T09:25:13;3.38;;;0.70;;
9906;SDS011;4992;51.628;6.664;2023-03-23T09:27:41;3.88;;;1.30;;
9906;SDS011;4992;51.628;6.664;2023-03-23T09:30:08;3.25;;;1.00;;
9906;SDS011;4992;51.628;6.664;2023-03-23T09:32:36;2.60;;;1.02;;
9906;SDS011;4992;51.628;6.664;2023-03-23T09:35:03;2.80;;;0.88;;
9906;SDS011;4992;51.628;6.664;2023-03-23T09:37:33;4.38;;;0.95;;
9906;SDS011;4992;51.628;6.664;2023-03-23T09:40:00;2.47;;;0.80;;
9906;SDS011;4992;51.628;6.664;2023-03-23T09:42:40;3.65;;;0.98;;
9906;SDS011;4992;51.628;6.664;2023-03-23T09:50:31;3.17;;;0.73;;
9906;SDS011;4992;51.628;6.664;2023-03-23T09:53:05;2.28;;;0.90;;
9906;SDS011;4992;51.628;6.664;2023-03-23T09:55:38;3.10;;;1.00;;
9906;SDS011;4992;51.628;6.664;2023-03-23T09:58:09;1.45;;;0.70;;
9906;SDS011;4992;51.628;6.664;2023-03-23T10:00:37;4.80;;;0.73;;
9906;SDS011;4992;51.628;6.664;2023-03-23T10:03:16;2.35;;;0.60;;
9906;SDS011;4992;51.628;6.664;2023-03-23T10:05:45;2.85;;;0.77;;
9906;SDS011;4992;51.628;6.664;2023-03-23T10:08:14;2.20;;;0.57;;
9906;SDS011;4992;51.628;6.664;2023-03-23T10:10:48;1.35;;;0.45;;
9906;SDS011;4992;51.628;6.664;2023-03-23T10:16:02;2.72;;;0.60;;
9906;SDS011;4992;51.628;6.664;2023-03-23T10:21:02;2.55;;;0.70;;
9906;SDS011;4992;51.628;6.664;2023-03-23T10:23:35;2.67;;;0.57;;
9906;SDS011;4992;51.628;6.664;2023-03-23T10:28:35;2.88;;;0.73;;
9906;SDS011;4992;51.628;6.664;2023-03-23T10:31:23;1.77;;;0.88;;
9906;SDS011;4992;51.628;6.664;2023-03-23T10:33:54;1.75;;;0.57;;
9906;SDS011;4992;51.628;6.664;2023-03-23T10:39:29;1.70;;;0.60;;
9906;SDS011;4992;51.628;6.664;2023-03-23T10:42:21;1.98;;;0.55;;
9906;SDS011;4992;51.628;6.664;2023-03-23T10:44:48;1.25;;;0.60;;
9906;SDS011;4992;51.628;6.664;2023-03-23T10:47:14;4.82;;;0.60;;
9906;SDS011;4992;51.628;6.664;2023-03-23T10:49:42;3.85;;;0.60;;
9906;SDS011;4992;51.628;6.664;2023-03-23T10:52:29;1.05;;;0.57;;
9906;SDS011;4992;51.628;6.664;2023-03-23T10:55:09;2.88;;;0.75;;
9906;SDS011;4992;51.628;6.664;2023-03-23T10:57:41;2.95;;;0.90;;
9906;SDS011;4992;51.628;6.664;2023-03-23T11:02:59;3.05;;;0.80;;
9906;SDS011;4992;51.628;6.664;2023-03-23T11:05:36;2.10;;;0.80;;
9906;SDS011;4992;51.628;6.664;2023-03-23T11:08:21;4.03;;;0.80;;
9906;SDS011;4992;51.628;6.664;2023-03-23T11:13:18;3.63;;;0.75;;
9906;SDS011;4992;51.628;6.664;2023-03-23T11:15:46;0.93;;;0.50;;
9906;SDS011;4992;51.628;6.664;2023-03-23T11:18:20;1.58;;;0.60;;
9906;SDS011;4992;51.628;6.664;2023-03-23T11:20:47;1.33;;;0.45;;
9906;SDS011;4992;51.628;6.664;2023-03-23T11:23:34;6.40;;;0.82;;
9906;SDS011;4992;51.628;6.664;2023-03-23T11:29:05;2.08;;;0.55;;
9906;SDS011;4992;51.628;6.664;2023-03-23T11:31:41;1.55;;;0.50;;
9906;SDS011;4992;51.628;6.664;2023-03-23T11:34:21;2.30;;;0.68;;
9906;SDS011;4992;51.628;6.664;2023-03-23T11:36:58;1.80;;;0.70;;
9906;SDS011;4992;51.628;6.664;2023-03-23T11:42:47;1.20;;;0.45;;
9906;SDS011;4992;51.628;6.664;2023-03-23T11:45:24;1.55;;;0.60;;
9906;SDS011;4992;51.628;6.664;2023-03-23T11:50:52;1.80;;;0.50;;
9906;SDS011;4992;51.628;6.664;2023-03-23T11:53:47;2.10;;;0.70;;
9906;SDS011;4992;51.628;6.664;2023-03-23T11:56:28;1.63;;;0.80;;
9906;SDS011;4992;51.628;6.664;2023-03-23T11:58:58;2.05;;;0.60;;
9906;SDS011;4992;51.628;6.664;2023-03-23T12:01:34;0.68;;;0.50;;
9906;SDS011;4992;51.628;6.664;2023-03-23T12:07:25;2.25;;;0.60;;
9906;SDS011;4992;51.628;6.664;2023-03-23T12:13:00;1.58;;;0.68;;
9906;SDS011;4992;51.628;6.664;2023-03-23T12:26:35;1.13;;;0.40;;
9906;SDS011;4992;51.628;6.664;2023-03-23T12:32:24;1.67;;;0.60;;
9906;SDS011;4992;51.628;6.664;2023-03-23T12:49:19;1.52;;;0.80;;
9906;SDS011;4992;51.628;6.664;2023-03-23T13:02:19;1.95;;;0.70;;
9906;SDS011;4992;51.628;6.664;2023-03-23T13:04:47;0.60;;;0.60;;
9906;SDS011;4992;51.628;6.664;2023-03-23T13:07:21;1.50;;;0.73;;
9906;SDS011;4992;51.628;6.664;2023-03-23T13:09:53;1.30;;;0.90;;
9906;SDS011;4992;51.628;6.664;2023-03-23T13:12:28;1.20;;;0.73;;
9906;SDS011;4992;51.628;6.664;2023-03-23T13:14:59;0.75;;;0.75;;
9906;SDS011;4992;51.628;6.664;2023-03-23T13:17:59;1.83;;;0.75;;
9906;SDS011;4992;51.628;6.664;2023-03-23T13:20:37;2.13;;;0.90;;
9906;SDS011;4992;51.628;6.664;2023-03-23T13:23:29;2.50;;;1.20;;
9906;SDS011;4992;51.628;6.664;2023-03-23T13:28:34;3.97;;;0.95;;
9906;SDS011;4992;51.628;6.664;2023-03-23T13:31:37;4.97;;;3.35;;
9906;SDS011;4992;51.628;6.664;2023-03-23T13:34:05;3.70;;;1.55;;
9906;SDS011;4992;51.628;6.664;2023-03-23T13:36:45;2.47;;;0.88;;
9906;SDS011;4992;51.628;6.664;2023-03-23T13:39:25;4.75;;;1.20;;
9906;SDS011;4992;51.628;6.664;2023-03-23T13:42:20;3.15;;;1.63;;
9906;SDS011;4992;51.628;6.664;2023-03-23T13:52:36;3.05;;;1.20;;
9906;SDS011;4992;51.628;6.664;2023-03-23T13:57:56;4.72;;;1.42;;
9906;SDS011;4992;51.628;6.664;2023-03-23T14:10:53;3.20;;;1.45;;
9906;SDS011;4992;51.628;6.664;2023-03-23T14:16:31;3.55;;;1.40;;
9906;SDS011;4992;51.628;6.664;2023-03-23T14:19:15;3.13;;;1.33;;
9906;SDS011;4992;51.628;6.664;2023-03-23T14:22:02;4.05;;;1.77;;
9906;SDS011;4992;51.628;6.664;2023-03-23T14:24:29;4.43;;;1.30;;
9906;SDS011;4992;51.628;6.664;2023-03-23T14:27:08;2.47;;;1.42;;
9906;SDS011;4992;51.628;6.664;2023-03-23T14:29:37;2.97;;;1.40;;
9906;SDS011;4992;51.628;6.664;2023-03-23T14:32:04;3.65;;;1.40;;
9906;SDS011;4992;51.628;6.664;2023-03-23T14:34:32;4.45;;;1.38;;
9906;SDS011;4992;51.628;6.664;2023-03-23T14:36:59;4.22;;;1.20;;
9906;SDS011;4992;51.628;6.664;2023-03-23T14:39:26;3.42;;;1.08;;
9906;SDS011;4992;51.628;6.664;2023-03-23T14:41:54;3.08;;;1.33;;
9906;SDS011;4992;51.628;6.664;2023-03-23T14:44:26;2.53;;;1.35;;
9906;SDS011;4992;51.628;6.664;2023-03-23T14:46:55;1.77;;;1.10;;
9906;SDS011;4992;51.628;6.664;2023-03-23T14:49:36;2.63;;;1.38;;
9906;SDS011;4992;51.628;6.664;2023-03-23T14:52:10;3.50;;;1.27;;
9906;SDS011;4992;51.628;6.664;2023-03-23T14:54:41;3.22;;;1.23;;
9906;SDS011;4992;51.628;6.664;2023-03-23T14:57:12;2.40;;;1.35;;
9906;SDS011;4992;51.628;6.664;2023-03-23T14:59:40;1.65;;;1.05;;
9906;SDS011;4992;51.628;6.664;2023-03-23T15:02:09;3.47;;;1.40;;
9906;SDS011;4992;51.628;6.664;2023-03-23T15:04:38;2.40;;;1.30;;
9906;SDS011;4992;51.628;6.664;2023-03-23T15:07:04;2.90;;;1.30;;
9906;SDS011;4992;51.628;6.664;2023-03-23T15:09:31;2.22;;;1.25;;
9906;SDS011;4992;51.628;6.664;2023-03-23T15:12:03;3.50;;;1.83;;
9906;SDS011;4992;51.628;6.664;2023-03-23T15:14:31;2.30;;;1.55;;
9906;SDS011;4992;51.628;6.664;2023-03-23T15:17:00;3.88;;;1.60;;
9906;SDS011;4992;51.628;6.664;2023-03-23T15:19:27;2.67;;;1.20;;
9906;SDS011;4992;51.628;6.664;2023-03-23T15:24:46;3.17;;;1.50;;
9906;SDS011;4992;51.628;6.664;2023-03-23T15:30:26;2.08;;;1.00;;
9906;SDS011;4992;51.628;6.664;2023-03-23T15:32:54;3.33;;;1.38;;
9906;SDS011;4992;51.628;6.664;2023-03-23T15:35:37;4.40;;;1.42;;
9906;SDS011;4992;51.628;6.664;2023-03-23T15:38:06;3.10;;;1.20;;
9906;SDS011;4992;51.628;6.664;2023-03-23T15:40:42;3.67;;;1.20;;
9906;SDS011;4992;51.628;6.664;2023-03-23T15:43:20;3.05;;;1.08;;
9906;SDS011;4992;51.628;6.664;2023-03-23T15:46:04;2.15;;;0.82;;
9906;SDS011;4992;51.628;6.664;2023-03-23T15:51:19;1.92;;;0.77;;
9906;SDS011;4992;51.628;6.664;2023-03-23T15:53:46;4.10;;;1.15;;
9906;SDS011;4992;51.628;6.664;2023-03-23T15:56:13;2.78;;;1.30;;
9906;SDS011;4992;51.628;6.664;2023-03-23T15:58:39;1.95;;;0.90;;
9906;SDS011;4992;51.628;6.664;2023-03-23T16:01:15;3.53;;;1.25;;
9906;SDS011;4992;51.628;6.664;2023-03-23T16:03:56;1.95;;;1.10;;
9906;SDS011;4992;51.628;6.664;2023-03-23T16:06:26;3.70;;;1.50;;
9906;SDS011;4992;51.628;6.664;2023-03-23T16:08:54;5.22;;;1.20;;
9906;SDS011;4992;51.628;6.664;2023-03-23T16:11:21;2.30;;;1.00;;
9906;SDS011;4992;51.628;6.664;2023-03-23T16:13:47;2.55;;;1.48;;
9906;SDS011;4992;51.628;6.664;2023-03-23T16:16:55;2.90;;;1.08;;
9906;SDS011;4992;51.628;6.664;2023-03-23T16:19:13;3.42;;;1.50;;
9906;SDS011;4992;51.628;6.664;2023-03-23T16:21:39;5.78;;;1.20;;
9906;SDS011;4992;51.628;6.664;2023-03-23T16:24:06;4.85;;;1.98;;
9906;SDS011;4992;51.628;6.664;2023-03-23T16:26:33;7.78;;;1.48;;
9906;SDS011;4992;51.628;6.664;2023-03-23T16:28:58;4.38;;;1.23;;
9906;SDS011;4992;51.628;6.664;2023-03-23T16:31:24;3.58;;;1.40;;
9906;SDS011;4992;51.628;6.664;2023-03-23T16:33:50;5.45;;;1.50;;
9906;SDS011;4992;51.628;6.664;2023-03-23T16:36:15;5.18;;;1.65;;
9906;SDS011;4992;51.628;6.664;2023-03-23T16:38:41;4.50;;;1.85;;
9906;SDS011;4992;51.628;6.664;2023-03-23T16:41:07;2.95;;;1.48;;
9906;SDS011;4992;51.628;6.664;2023-03-23T16:43:33;4.80;;;1.73;;
9906;SDS011;4992;51.628;6.664;2023-03-23T16:45:59;4.07;;;1.40;;
9906;SDS011;4992;51.628;6.664;2023-03-23T16:48:25;3.40;;;1.50;;
9906;SDS011;4992;51.628;6.664;2023-03-23T16:50:51;4.78;;;1.63;;
9906;SDS011;4992;51.628;6.664;2023-03-23T16:53:18;3.47;;;1.23;;
9906;SDS011;4992;51.628;6.664;2023-03-23T16:55:44;5.07;;;1.40;;
9906;SDS011;4992;51.628;6.664;2023-03-23T16:58:12;4.63;;;2.47;;
9906;SDS011;4992;51.628;6.664;2023-03-23T17:00:39;3.28;;;1.23;;
9906;SDS011;4992;51.628;6.664;2023-03-23T17:03:05;4.15;;;1.73;;
9906;SDS011;4992;51.628;6.664;2023-03-23T17:05:31;4.45;;;1.33;;
9906;SDS011;4992;51.628;6.664;2023-03-23T17:07:56;3.50;;;1.55;;
9906;SDS011;4992;51.628;6.664;2023-03-23T17:10:23;4.88;;;2.10;;
9906;SDS011;4992;51.628;6.664;2023-03-23T17:12:51;3.20;;;1.27;;
9906;SDS011;4992;51.628;6.664;2023-03-23T17:15:17;6.63;;;1.80;;
9906;SDS011;4992;51.628;6.664;2023-03-23T17:17:43;4.18;;;1.40;;
9906;SDS011;4992;51.628;6.664;2023-03-23T17:20:09;6.53;;;1.63;;
9906;SDS011;4992;51.628;6.664;2023-03-23T17:22:36;3.47;;;1.58;;
9906;SDS011;4992;51.628;6.664;2023-03-23T17:25:03;4.57;;;1.63;;
9906;SDS011;4992;51.628;6.664;2023-03-23T17:27:30;9.60;;;2.28;;
9906;SDS011;4992;51.628;6.664;2023-03-23T17:29:55;5.13;;;2.00;;
9906;SDS011;4992;51.628;6.664;2023-03-23T17:32:21;3.22;;;1.70;;
9906;SDS011;4992;51.628;6.664;2023-03-23T17:34:48;2.25;;;1.50;;
9906;SDS011;4992;51.628;6.664;2023-03-23T17:37:14;3.47;;;1.77;;